Time;durP1;ratioP1;P1;durP2;ratioP2;P2;SDS_P1;SDS_P2;PMS_P1;PMS_P2;Temp;Humidity;BMP_temperature;BMP_pressure;BME280_temperature;BME280_humidity;BME280_pressure;Samples;Min_cycle;Max_cycle;Signal;HPM_P1;HPM_P2
2023/12/27 00:00:09;;;;;;;6.73;4.30;;;5.60;99.90;;;6.35;100.00;98600.19;5045302;28;20519;-84
2023/12/27 00:02:38;;;;;;;8.13;3.60;;;5.50;99.90;;;6.36;100.00;98594.03;5047083;28;20544;-84
2023/12/27 00:05:09;;;;;;;15.83;3.50;;;5.50;99.90;;;6.39;100.00;98598.09;5047360;28;20463;-85
2023/12/27 00:07:37;;;;;;;13.23;3.53;;;5.50;99.90;;;6.37;100.00;98595.66;5048315;28;20830;-84
2023/12/27 00:10:08;;;;;;;12.90;3.83;;;5.60;99.90;;;6.39;100.00;98585.13;5046676;28;20457;-85
2023/12/27 00:12:36;;;;;;;9.87;4.00;;;5.60;99.90;;;6.41;100.00;98585.81;5049310;28;20454;-84
2023/12/27 00:15:06;;;;;;;9.67;3.77;;;5.60;99.90;;;6.40;100.00;98595.38;5047528;28;20522;-84
2023/12/27 00:17:35;;;;;;;9.50;3.53;;;5.60;99.90;;;6.37;100.00;98600.88;5048629;28;20549;-84
2023/12/27 00:20:05;;;;;;;6.10;3.50;;;5.50;99.90;;;6.34;100.00;98610.72;5051729;28;20464;-84
2023/12/27 00:22:35;;;;;;;13.50;4.60;;;5.50;99.90;;;6.37;100.00;98611.25;5051750;28;20463;-84
2023/12/27 00:25:04;;;;;;;7.57;3.20;;;5.50;99.90;;;6.40;100.00;98613.56;5049424;28;20494;-84
2023/12/27 00:27:33;;;;;;;9.67;3.40;;;5.60;99.90;;;6.40;100.00;98610.97;5051761;28;20469;-84
2023/12/27 00:30:02;;;;;;;6.80;4.17;;;5.60;99.90;;;6.37;100.00;98602.63;5050230;28;20468;-84
2023/12/27 00:32:31;;;;;;;10.80;3.97;;;5.50;99.90;;;6.40;100.00;98610.97;5051874;28;20469;-84
2023/12/27 00:34:59;;;;;;;16.60;4.70;;;5.60;99.90;;;6.42;100.00;98603.81;5050255;28;20454;-84
2023/12/27 00:37:28;;;;;;;8.50;4.23;;;5.60;99.90;;;6.46;100.00;98597.38;5049875;28;20471;-84
2023/12/27 00:39:58;;;;;;;6.33;3.97;;;5.70;99.90;;;6.49;100.00;98598.88;5051148;28;20461;-83
2023/12/27 00:42:26;;;;;;;17.63;4.47;;;5.70;99.90;;;6.48;100.00;98605.03;5050794;28;20495;-84
2023/12/27 00:44:55;;;;;;;7.63;3.90;;;5.70;99.90;;;6.47;100.00;98599.00;5048007;28;20464;-84
2023/12/27 00:47:24;;;;;;;12.60;3.83;;;5.60;99.90;;;6.48;100.00;98603.25;5049365;28;20548;-84
2023/12/27 00:49:53;;;;;;;8.70;4.03;;;5.70;99.90;;;6.49;100.00;98598.88;5050758;28;20491;-84
2023/12/27 00:52:21;;;;;;;15.03;4.90;;;5.70;99.90;;;6.50;100.00;98601.31;5050407;28;20464;-85
2023/12/27 00:54:50;;;;;;;10.70;4.97;;;5.70;99.90;;;6.44;100.00;98601.91;5048198;28;20959;-84
2023/12/27 00:57:20;;;;;;;7.50;4.60;;;5.60;99.90;;;6.41;100.00;98604.81;5049455;28;20475;-84
2023/12/27 00:59:49;;;;;;;11.53;4.33;;;5.60;99.90;;;6.47;100.00;98601.63;5049172;28;20983;-85
2023/12/27 01:02:17;;;;;;;12.53;4.90;;;5.70;99.90;;;6.50;100.00;98601.31;5048759;28;20497;-84
2023/12/27 01:04:46;;;;;;;8.80;4.13;;;5.70;99.90;;;6.55;100.00;98608.69;5046856;28;20464;-84
2023/12/27 01:07:15;;;;;;;11.00;4.80;;;5.70;99.90;;;6.55;100.00;98604.31;5049340;28;21040;-84
2023/12/27 01:09:44;;;;;;;7.83;4.80;;;5.80;99.90;;;6.61;100.00;98604.66;5050618;28;20477;-84
2023/12/27 01:12:12;;;;;;;13.23;5.03;;;5.80;99.90;;;6.61;100.00;98604.66;5046872;28;20471;-84
2023/12/27 01:14:42;;;;;;;8.70;3.93;;;5.80;99.90;;;6.58;100.00;98605.78;5051464;28;20464;-84
2023/12/27 01:17:11;;;;;;;11.47;4.70;;;5.80;99.90;;;6.57;100.00;98607.56;5050674;28;21013;-85
2023/12/27 01:19:40;;;;;;;6.90;4.30;;;5.70;99.90;;;6.58;100.00;98598.81;5050501;28;20515;-84
2023/12/27 01:22:09;;;;;;;8.13;4.67;;;5.80;99.90;;;6.64;100.00;98605.19;5048976;28;20594;-85
2023/12/27 01:24:37;;;;;;;12.30;6.10;;;5.80;99.90;;;6.67;100.00;98606.66;5050767;28;20461;-84
2023/12/27 01:27:06;;;;;;;12.20;4.83;;;5.90;99.90;;;6.68;100.00;98597.91;5052480;28;21004;-84
2023/12/27 01:29:35;;;;;;;12.20;5.73;;;5.90;99.90;;;6.68;100.00;98598.72;5050163;28;20471;-84
2023/12/27 01:32:05;;;;;;;17.30;5.80;;;5.90;99.90;;;6.66;100.00;98600.66;5049790;28;20833;-85
2023/12/27 01:34:37;;;;;;;11.10;5.00;;;5.80;99.90;;;6.69;100.00;98600.38;5050761;28;20469;-84
2023/12/27 01:37:06;;;;;;;15.53;5.60;;;5.90;99.90;;;6.72;100.00;98599.25;5049457;28;20487;-84
2023/12/27 01:39:35;;;;;;;15.77;5.03;;;6.00;99.90;;;6.78;100.00;98599.47;5047312;28;20472;-84
2023/12/27 01:42:05;;;;;;;13.53;5.50;;;6.10;99.90;;;6.78;100.00;98602.06;5047986;28;20492;-84
2023/12/27 01:44:33;;;;;;;16.23;4.50;;;6.00;99.90;;;6.80;100.00;98599.31;5048573;28;20503;-84
2023/12/27 01:47:05;;;;;;;15.53;5.20;;;6.10;99.90;;;6.82;100.00;98600.81;5048970;28;20465;-84
2023/12/27 01:49:33;;;;;;;12.00;5.10;;;6.10;99.90;;;6.86;100.00;98588.31;5049767;28;20465;-84
2023/12/27 01:52:02;;;;;;;21.53;4.87;;;6.10;99.90;;;6.84;100.00;98598.84;5047693;28;20542;-84
2023/12/27 01:54:31;;;;;;;15.83;5.23;;;6.00;99.90;;;6.86;100.00;98606.53;5050259;28;20469;-83
2023/12/27 01:57:00;;;;;;;10.43;4.23;;;6.10;99.90;;;6.87;100.00;98606.34;5045628;28;20489;-84
2023/12/27 01:59:30;;;;;;;9.20;4.23;;;6.10;99.90;;;6.83;100.00;98599.84;5048496;28;20998;-84
2023/12/27 02:01:59;;;;;;;9.73;4.93;;;6.10;99.90;;;6.88;100.00;98610.59;5048666;28;20488;-84
2023/12/27 02:04:29;;;;;;;12.50;5.37;;;6.10;99.90;;;6.89;100.00;98609.63;5052107;28;20463;-84
2023/12/27 02:06:59;;;;;;;9.50;4.30;;;6.10;99.90;;;6.93;100.00;98607.56;5050979;28;20473;-84
2023/12/27 02:09:28;;;;;;;12.00;5.00;;;6.20;99.90;;;6.95;100.00;98613.41;5050101;28;20465;-83
2023/12/27 02:11:56;;;;;;;11.07;4.87;;;6.20;99.90;;;6.95;100.00;98600.41;5047752;28;20461;-83
2023/12/27 02:14:25;;;;;;;10.90;4.50;;;6.20;99.90;;;6.93;100.00;98592.78;5049768;28;20493;-84
2023/12/27 02:16:54;;;;;;;17.07;4.90;;;6.20;99.90;;;6.93;100.00;98597.16;5049719;28;20469;-84
2023/12/27 02:19:26;;;;;;;10.27;5.17;;;6.10;99.90;;;6.89;100.00;98591.44;5046769;28;20469;-84
2023/12/27 02:21:59;;;;;;;8.37;4.50;;;6.10;99.90;;;6.91;100.00;98591.28;5049838;28;20495;-84
2023/12/27 02:24:36;;;;;;;13.40;5.47;;;6.10;99.90;;;6.89;100.00;98583.63;5051011;28;20456;-83
2023/12/27 02:27:05;;;;;;;20.43;5.87;;;6.10;99.90;;;6.89;100.00;98575.03;5048969;28;20740;-84
2023/12/27 02:29:36;;;;;;;9.10;5.17;;;6.10;99.90;;;6.85;100.00;98573.69;5050310;28;20580;-84
2023/12/27 02:32:06;;;;;;;11.67;4.80;;;6.00;99.90;;;6.85;100.00;98573.69;5047328;28;20551;-84
2023/12/27 02:34:34;;;;;;;7.43;4.57;;;6.00;99.90;;;6.86;100.00;98573.53;5049342;28;20461;-83
2023/12/27 02:37:04;;;;;;;7.30;5.07;;;6.00;99.90;;;6.90;100.00;98571.47;5049409;28;20458;-84
2023/12/27 02:39:34;;;;;;;12.37;5.90;;;6.00;99.90;;;6.96;100.00;98570.84;5046996;28;20463;-84
2023/12/27 02:42:03;;;;;;;12.20;5.40;;;6.20;99.90;;;7.00;100.00;98567.00;5046308;28;21213;-83
2023/12/27 02:44:31;;;;;;;15.30;4.60;;;6.20;99.90;;;6.97;100.00;98562.09;5047141;28;20556;-83
2023/12/27 02:47:01;;;;;;;7.67;5.23;;;6.20;99.90;;;6.95;100.00;98558.81;5047633;28;21373;-84
2023/12/27 02:49:30;;;;;;;17.30;5.20;;;6.20;99.90;;;6.97;100.00;98549.09;5049053;28;20533;-84
2023/12/27 02:51:59;;;;;;;12.47;4.80;;;6.20;99.90;;;7.00;100.00;98541.00;5048450;28;20866;-84
2023/12/27 02:54:27;;;;;;;15.93;5.17;;;6.20;99.90;;;7.04;100.00;98545.75;5047263;28;20473;-84
2023/12/27 02:56:57;;;;;;;14.30;4.73;;;6.20;99.90;;;7.04;100.00;98543.16;5047280;28;20472;-84
2023/12/27 02:59:26;;;;;;;8.60;4.10;;;6.30;99.90;;;7.06;100.00;98545.56;5047694;28;21041;-83
2023/12/27 03:01:54;;;;;;;10.53;4.50;;;6.20;99.90;;;7.04;100.00;98537.13;5049302;28;20507;-84
2023/12/27 03:04:23;;;;;;;13.27;5.27;;;6.20;99.90;;;7.05;100.00;98538.72;5046462;28;20465;-84
2023/12/27 03:06:52;;;;;;;13.97;5.00;;;6.20;99.90;;;7.06;100.00;98540.38;5047034;28;20457;-84
2023/12/27 03:09:21;;;;;;;19.00;5.87;;;6.20;99.90;;;7.06;100.00;98541.19;5049032;28;21018;-84
2023/12/27 03:11:49;;;;;;;9.30;4.60;;;6.20;99.90;;;7.08;100.00;98522.81;5048273;28;20632;-84
2023/12/27 03:14:20;;;;;;;14.30;5.30;;;6.30;99.90;;;7.04;100.00;98526.72;5049260;28;20972;-84
2023/12/27 03:16:48;;;;;;;9.20;4.70;;;6.20;99.90;;;7.03;100.00;98520.69;5052438;28;20497;-84
2023/12/27 03:19:17;;;;;;;8.20;4.63;;;6.20;99.90;;;7.04;100.00;98516.31;5049108;28;20465;-84
2023/12/27 03:21:46;;;;;;;9.20;3.87;;;6.20;99.90;;;7.08;100.00;98509.81;5046876;28;20469;-84
2023/12/27 03:24:14;;;;;;;7.67;3.97;;;6.30;99.90;;;7.07;100.00;98511.63;5048752;28;20986;-83
2023/12/27 03:26:43;;;;;;;13.13;4.70;;;6.30;99.90;;;7.08;100.00;98505.44;5049549;28;20448;-84
2023/12/27 03:29:11;;;;;;;9.97;4.33;;;6.30;99.90;;;7.07;100.00;98501.22;5045421;28;20994;-85
2023/12/27 03:31:41;;;;;;;12.47;4.77;;;6.20;99.90;;;7.09;100.00;98507.09;5047059;28;20527;-84
2023/12/27 03:34:10;;;;;;;8.50;4.60;;;6.30;99.90;;;7.12;100.00;98503.34;5046068;28;20473;-84
2023/12/27 03:36:39;;;;;;;7.17;4.50;;;6.30;99.90;;;7.13;100.00;98499.78;5049027;28;20929;-84
2023/12/27 03:39:07;;;;;;;10.80;4.40;;;6.30;99.90;;;7.13;100.00;98504.16;5047677;28;20555;-83
2023/12/27 03:41:36;;;;;;;11.07;4.47;;;6.30;99.90;;;7.15;100.00;98500.44;5045290;28;20469;-84
2023/12/27 03:44:05;;;;;;;12.30;4.27;;;6.30;99.90;;;7.16;100.00;98502.06;5044522;28;21008;-84
2023/12/27 03:46:33;;;;;;;9.20;4.37;;;6.30;99.90;;;7.17;100.00;98500.28;5045726;28;20475;-84
2023/12/27 03:49:03;;;;;;;7.77;4.50;;;6.20;99.90;;;7.19;100.00;98499.16;5045330;28;20461;-84
2023/12/27 03:51:32;;;;;;;9.27;5.03;;;6.40;99.90;;;7.19;100.00;98495.75;5045947;28;20508;-84
2023/12/27 03:54:01;;;;;;;14.67;4.83;;;6.40;99.90;;;7.22;100.00;98492.88;5047161;28;20973;-84
2023/12/27 03:56:30;;;;;;;9.80;4.10;;;6.40;99.90;;;7.23;100.00;98489.28;5050007;28;20465;-84
2023/12/27 03:58:58;;;;;;;7.43;4.30;;;6.40;99.90;;;7.24;100.00;98488.31;5048796;28;21024;-84
2023/12/27 04:01:27;;;;;;;10.27;4.70;;;6.40;99.90;;;7.23;100.00;98490.09;5046558;28;20469;-84
2023/12/27 04:03:55;;;;;;;10.07;4.63;;;6.40;99.90;;;7.25;100.00;98489.94;5048089;28;21012;-84
2023/12/27 04:06:26;;;;;;;9.60;4.90;;;6.40;99.90;;;7.25;100.00;98490.78;5047329;28;20466;-84
2023/12/27 04:08:55;;;;;;;18.73;4.80;;;6.40;99.90;;;7.22;100.00;98498.84;5045570;28;20478;-84
2023/12/27 04:11:24;;;;;;;7.40;4.87;;;6.40;99.90;;;7.22;100.00;98500.66;5044622;28;20487;-84
2023/12/27 04:13:52;;;;;;;17.30;5.17;;;6.40;99.90;;;7.23;100.00;98504.88;5047291;28;20474;-83
2023/12/27 04:16:21;;;;;;;11.13;4.27;;;6.40;99.90;;;7.25;100.00;98501.16;5045801;28;20465;-84
2023/12/27 04:18:49;;;;;;;9.20;4.20;;;6.50;99.90;;;7.28;100.00;98503.47;5047975;28;20602;-84
2023/12/27 04:21:20;;;;;;;11.37;4.37;;;6.50;99.90;;;7.29;100.00;98499.06;5048299;28;20468;-84
2023/12/27 04:23:50;;;;;;;8.33;4.10;;;6.50;99.90;;;7.32;100.00;98499.59;5044953;28;20583;-84
2023/12/27 04:26:18;;;;;;;10.37;4.67;;;6.60;99.90;;;7.34;100.00;98504.63;5047359;28;20464;-84
2023/12/27 04:28:47;;;;;;;8.50;3.83;;;6.60;99.90;;;7.34;100.00;98502.00;5046399;28;20508;-84
2023/12/27 04:31:16;;;;;;;11.73;4.57;;;6.60;99.90;;;7.33;100.00;98490.78;5046759;28;20468;-84
2023/12/27 04:33:44;;;;;;;10.13;4.47;;;6.60;99.90;;;7.35;100.00;98478.47;5045033;28;20499;-84
2023/12/27 04:36:13;;;;;;;11.23;4.90;;;6.60;99.90;;;7.36;100.00;98477.47;5046701;28;20514;-84
2023/12/27 04:38:41;;;;;;;9.90;4.20;;;6.60;99.90;;;7.34;100.00;98476.81;5045445;28;20461;-84
2023/12/27 04:41:10;;;;;;;13.43;3.97;;;6.60;99.90;;;7.31;100.00;98471.94;5046063;28;20466;-84
2023/12/27 04:43:39;;;;;;;25.40;4.73;;;6.50;99.90;;;7.32;100.00;98457.97;5045703;28;20508;-84
2023/12/27 04:46:08;;;;;;;10.07;5.43;;;6.50;99.90;;;7.30;100.00;98454.69;5042328;28;20466;-84
2023/12/27 04:48:36;;;;;;;19.10;4.77;;;6.50;99.90;;;7.30;100.00;98459.88;5045276;28;20469;-84
2023/12/27 04:51:05;;;;;;;8.90;4.60;;;6.50;99.90;;;7.30;100.00;98465.09;5046272;28;20963;-84
2023/12/27 04:53:34;;;;;;;8.73;4.57;;;6.50;99.90;;;7.31;100.00;98456.31;5046319;28;20967;-84
2023/12/27 04:56:03;;;;;;;18.87;5.17;;;6.50;99.90;;;7.35;100.00;98462.03;5046694;28;20495;-84
2023/12/27 04:58:40;;;;;;;11.07;4.77;;;6.60;99.90;;;7.36;100.00;98459.25;5047328;28;20470;-84
2023/12/27 05:01:18;;;;;;;10.27;5.30;;;6.60;99.90;;;7.36;100.00;98454.06;5046290;28;20467;-84
2023/12/27 05:03:47;;;;;;;10.37;4.30;;;6.60;99.90;;;7.40;100.00;98449.34;5045829;28;20562;-84
2023/12/27 05:06:16;;;;;;;16.20;5.00;;;6.70;99.90;;;7.41;100.00;98444.00;5046778;28;20464;-84
2023/12/27 05:08:44;;;;;;;6.47;4.23;;;6.70;99.90;;;7.43;100.00;98444.66;5049023;28;20476;-84
2023/12/27 05:11:14;;;;;;;14.23;4.80;;;6.70;99.90;;;7.44;100.00;98435.06;5048940;28;20458;-84
2023/12/27 05:13:46;;;;;;;6.90;3.90;;;6.70;99.90;;;7.36;100.00;98445.44;5046280;28;20465;-82
2023/12/27 05:16:16;;;;;;;10.27;4.33;;;6.60;99.90;;;7.32;100.00;98444.13;5047568;28;20476;-84
2023/12/27 05:18:46;;;;;;;8.03;4.63;;;6.50;99.90;;;7.31;100.00;98445.09;5049737;28;20461;-84
2023/12/27 05:21:18;;;;;;;10.90;4.30;;;6.50;99.90;;;7.38;100.00;98446.09;5048623;28;20468;-85
2023/12/27 05:23:47;;;;;;;10.87;4.47;;;6.60;99.90;;;7.38;100.00;98446.94;5047715;28;20489;-84
2023/12/27 05:26:14;;;;;;;8.40;4.43;;;6.60;99.90;;;7.42;100.00;98452.63;5046883;28;20457;-85
2023/12/27 05:28:44;;;;;;;29.77;9.37;;;6.70;99.90;;;7.43;100.00;98455.06;5049599;28;20463;-82
2023/12/27 05:31:13;;;;;;;11.37;4.93;;;6.70;99.90;;;7.47;100.00;98458.16;5041782;28;20852;-83
2023/12/27 05:33:42;;;;;;;13.80;4.53;;;6.70;99.90;;;7.47;100.00;98458.97;5046899;28;20452;-79
2023/12/27 05:36:11;;;;;;;10.10;4.93;;;6.70;99.90;;;7.47;100.00;98456.38;5048197;28;20510;-79
2023/12/27 05:38:40;;;;;;;10.07;4.50;;;6.70;99.90;;;7.45;100.00;98454.91;5050127;28;20536;-79
2023/12/27 05:41:08;;;;;;;7.43;4.27;;;6.60;99.90;;;7.49;100.00;98461.44;5049624;28;20464;-79
2023/12/27 05:43:37;;;;;;;5.73;3.40;;;6.70;99.90;;;7.50;100.00;98455.25;5047741;28;20488;-79
2023/12/27 05:46:07;;;;;;;8.37;3.83;;;6.70;99.90;;;7.50;100.00;98445.66;5048043;28;20487;-79
2023/12/27 05:48:35;;;;;;;14.47;4.73;;;6.70;99.90;;;7.52;100.00;98438.53;5046688;28;20465;-80
2023/12/27 05:51:04;;;;;;;9.50;3.83;;;6.70;99.90;;;7.56;100.00;98445.03;5048137;28;20586;-80
2023/12/27 05:53:33;;;;;;;9.40;3.20;;;6.80;99.90;;;7.56;100.00;98450.25;5049648;28;20476;-79
2023/12/27 05:56:02;;;;;;;4.50;3.60;;;6.80;99.90;;;7.53;100.00;98452.34;5046861;28;20582;-77
2023/12/27 05:58:32;;;;;;;6.90;3.70;;;6.80;99.90;;;7.58;100.00;98466.50;5047768;28;20546;-78
2023/12/27 06:01:00;;;;;;;9.57;4.07;;;6.90;99.90;;;7.59;100.00;98465.53;5048015;28;21372;-80
2023/12/27 06:03:30;;;;;;;7.30;3.80;;;6.80;99.90;;;7.59;100.00;98457.75;5038100;28;20542;-79
2023/12/27 06:05:59;;;;;;;13.70;4.17;;;6.90;99.90;;;7.60;100.00;98456.75;5045055;28;20462;-80
2023/12/27 06:08:27;;;;;;;7.20;4.87;;;6.90;99.90;;;7.66;100.00;98459.69;5042692;28;20477;-78
2023/12/27 06:10:56;;;;;;;8.27;3.43;;;6.90;99.90;;;7.64;100.00;98456.41;5045980;28;20460;-78
2023/12/27 06:13:24;;;;;;;8.33;3.60;;;6.80;99.90;;;7.65;100.00;98463.25;5047464;28;20457;-79
2023/12/27 06:15:53;;;;;;;12.73;3.60;;;6.90;99.90;;;7.66;100.00;98464.91;5045959;28;20958;-78
2023/12/27 06:18:22;;;;;;;11.30;3.67;;;6.90;99.90;;;7.69;100.00;98470.59;5046413;28;20964;-79
2023/12/27 06:20:52;;;;;;;5.57;3.50;;;6.90;99.90;;;7.73;100.00;98474.53;5048527;28;20552;-78
2023/12/27 06:23:20;;;;;;;6.40;3.87;;;6.90;99.90;;;7.75;100.00;98463.94;5045361;28;21221;-78
2023/12/27 06:25:49;;;;;;;8.13;4.90;;;7.00;99.90;;;7.76;100.00;98465.59;5046092;28;20469;-78
2023/12/27 06:28:17;;;;;;;10.67;5.80;;;7.00;99.90;;;7.79;100.00;98466.09;5046313;28;20461;-78
2023/12/27 06:30:47;;;;;;;7.07;5.57;;;7.10;99.90;;;7.81;100.00;98469.31;5047190;28;20465;-78
2023/12/27 06:33:15;;;;;;;6.30;4.87;;;7.10;99.90;;;7.81;100.00;98463.34;5046530;28;20548;-78
2023/12/27 06:35:44;;;;;;;10.10;5.93;;;7.10;99.90;;;7.84;100.00;98471.63;5044546;28;20504;-78
2023/12/27 06:38:14;;;;;;;10.90;4.60;;;7.10;99.90;;;7.85;100.00;98452.41;5047855;28;20461;-78
2023/12/27 06:40:42;;;;;;;8.60;4.23;;;7.10;99.90;;;7.86;100.00;98461.88;5046802;28;20472;-78
2023/12/27 06:43:11;;;;;;;9.40;4.60;;;7.10;99.90;;;7.89;100.00;98448.53;5045427;28;20456;-78
2023/12/27 06:45:40;;;;;;;7.50;4.80;;;7.10;99.90;;;7.90;100.00;98446.75;5045331;28;20538;-78
2023/12/27 06:48:09;;;;;;;5.10;3.60;;;7.20;99.90;;;7.93;100.00;98462.03;5047464;28;20489;-78
2023/12/27 06:50:38;;;;;;;8.03;4.17;;;7.20;99.90;;;7.93;100.00;98462.03;5045908;28;20461;-78
2023/12/27 06:53:06;;;;;;;13.30;4.23;;;7.20;99.90;;;7.95;100.00;98460.91;5045445;28;20879;-78
2023/12/27 06:55:36;;;;;;;4.27;3.50;;;7.20;99.90;;;7.98;100.00;98465.00;5046542;28;20471;-78
2023/12/27 06:58:04;;;;;;;5.67;3.60;;;7.30;99.90;;;7.98;100.00;98457.19;5045662;28;20466;-78
2023/12/27 07:00:35;;;;;;;6.20;3.43;;;7.30;99.90;;;8.00;100.00;98468.25;5043253;28;20887;-78
2023/12/27 07:03:05;;;;;;;3.87;2.70;;;7.30;99.90;;;8.01;100.00;98455.06;5042275;28;20470;-76
2023/12/27 07:05:33;;;;;;;14.40;8.93;;;7.40;99.90;;;8.02;100.00;98456.69;5041652;28;20496;-79
2023/12/27 07:08:02;;;;;;;3.53;2.77;;;7.40;99.90;;;8.03;100.00;98444.47;5044263;28;20496;-79
2023/12/27 07:10:31;;;;;;;5.87;2.67;;;7.50;99.90;;;8.04;100.00;98448.72;5042346;28;20552;-79
2023/12/27 07:13:01;;;;;;;6.13;2.93;;;7.50;99.90;;;8.05;100.00;98432.13;5039508;28;20469;-79
2023/12/27 07:15:31;;;;;;;6.73;3.07;;;7.60;99.90;;;8.07;100.00;98441.41;5044436;28;20470;-78
2023/12/27 07:17:59;;;;;;;4.40;2.97;;;7.50;99.90;;;8.10;100.00;98435.03;5048633;28;20465;-78
2023/12/27 07:20:29;;;;;;;3.50;2.60;;;7.50;99.90;;;8.11;100.00;98418.44;5045886;28;20497;-79
2023/12/27 07:22:57;;;;;;;4.33;3.07;;;7.40;99.90;;;8.13;100.00;98421.69;5043441;28;20991;-79
2023/12/27 07:25:25;;;;;;;5.97;2.90;;;7.50;99.90;;;8.13;100.00;98421.69;5043193;28;20492;-78
2023/12/27 07:27:54;;;;;;;6.80;2.80;;;7.60;99.90;;;8.14;100.00;98417.31;5045605;28;20507;-79
2023/12/27 07:30:24;;;;;;;6.00;3.10;;;7.60;99.90;;;8.12;100.00;98412.28;5042840;28;20989;-78
2023/12/27 07:32:53;;;;;;;4.83;2.60;;;7.60;99.90;;;8.13;100.00;98413.88;5044871;28;20456;-79
2023/12/27 07:35:21;;;;;;;7.20;3.23;;;7.60;99.90;;;8.13;100.00;98413.88;5044278;28;20459;-80
2023/12/27 07:37:50;;;;;;;4.47;2.97;;;7.60;99.90;;;8.13;100.00;98420.88;5045944;28;20515;-79
2023/12/27 07:40:19;;;;;;;4.27;2.93;;;7.60;99.90;;;8.13;100.00;98426.91;5044595;28;20474;-79
2023/12/27 07:42:48;;;;;;;4.07;2.50;;;7.60;99.90;;;8.12;100.00;98425.28;5045527;28;20461;-79
2023/12/27 07:45:20;;;;;;;4.47;2.77;;;7.60;99.90;;;8.15;100.00;98409.34;5044887;28;20493;-79
2023/12/27 07:47:50;;;;;;;6.67;2.50;;;7.50;99.90;;;8.11;100.00;98392.41;5045340;28;20484;-79
2023/12/27 07:50:18;;;;;;;4.40;2.70;;;7.60;99.90;;;8.13;100.00;98385.22;5042516;28;20462;-80
2023/12/27 07:52:47;;;;;;;7.70;2.20;;;7.60;99.90;;;8.15;100.00;98388.50;5040874;28;20473;-79
2023/12/27 07:55:15;;;;;;;5.47;2.13;;;7.60;99.90;;;8.19;100.00;98399.41;5046111;28;20465;-79
2023/12/27 07:57:45;;;;;;;2.20;2.00;;;7.60;99.90;;;8.18;100.00;98409.00;5044060;28;20468;-79
2023/12/27 08:00:16;;;;;;;2.70;2.50;;;7.50;99.90;;;8.18;100.00;98409.00;5044679;28;20482;-79
2023/12/27 08:02:44;;;;;;;2.63;1.93;;;7.60;99.90;;;8.20;100.00;98396.63;5045518;28;20556;-78
2023/12/27 08:05:15;;;;;;;5.17;2.43;;;7.50;99.90;;;8.17;100.00;98390.94;5043326;28;20979;-79
2023/12/27 08:07:44;;;;;;;3.50;2.40;;;7.60;99.90;;;8.17;100.00;98383.94;5045371;28;21468;-79
2023/12/27 08:10:13;;;;;;;2.87;2.07;;;7.70;99.90;;;8.17;100.00;98380.50;5043000;28;20465;-79
2023/12/27 08:12:41;;;;;;;2.37;2.07;;;7.70;99.90;;;8.19;100.00;98389.00;5042867;28;20932;-78
2023/12/27 08:15:12;;;;;;;9.77;5.80;;;7.70;99.90;;;8.18;100.00;98388.19;5041808;28;20527;-78
2023/12/27 08:17:40;;;;;;;4.67;2.97;;;7.60;99.90;;;8.15;100.00;98393.72;5044629;28;20959;-79
2023/12/27 08:20:16;;;;;;;5.70;2.80;;;7.60;99.90;;;8.15;100.00;98398.09;5042787;28;21027;-79
2023/12/27 08:22:45;;;;;;;2.33;2.17;;;7.70;99.90;;;8.17;100.00;98402.16;5039165;28;20733;-79
2023/12/27 08:25:15;;;;;;;5.20;2.93;;;7.60;99.90;;;8.19;100.00;98402.81;5045414;28;20841;-79
2023/12/27 08:27:44;;;;;;;6.30;2.73;;;7.60;99.90;;;8.15;100.00;98409.34;5041560;28;20515;-80
2023/12/27 08:30:13;;;;;;;4.57;2.90;;;7.50;99.90;;;8.16;100.00;98421.38;5042358;28;20481;-79
2023/12/27 08:32:42;;;;;;;5.50;2.50;;;7.50;99.90;;;8.16;100.00;98426.56;5043493;28;20538;-79
2023/12/27 08:35:10;;;;;;;4.70;2.70;;;7.50;99.90;;;8.14;100.00;98415.53;5044880;28;20464;-79
2023/12/27 08:37:40;;;;;;;3.90;2.50;;;7.60;99.90;;;8.15;100.00;98424.97;5042911;28;20462;-79
2023/12/27 08:40:10;;;;;;;3.20;2.67;;;7.60;99.90;;;8.19;100.00;98430.66;5043814;28;20608;-77
2023/12/27 08:42:39;;;;;;;3.53;2.27;;;7.70;99.90;;;8.17;100.00;98423.00;5046229;28;20458;-79
2023/12/27 08:45:08;;;;;;;4.73;2.70;;;7.60;99.90;;;8.18;100.00;98416.81;5045473;28;20483;-77
2023/12/27 08:47:37;;;;;;;11.37;6.50;;;7.60;99.90;;;8.19;100.00;98397.59;5045340;28;20934;-79
2023/12/27 08:50:07;;;;;;;2.77;2.53;;;7.60;99.90;;;8.16;100.00;98397.94;5047486;28;20476;-77
2023/12/27 08:52:36;;;;;;;2.90;2.40;;;7.60;99.90;;;8.17;100.00;98381.31;5045760;28;20559;-77
2023/12/27 08:55:10;;;;;;;3.03;2.37;;;7.70;99.90;;;8.17;100.00;98368.31;5046783;28;20484;-77
2023/12/27 08:57:39;;;;;;;7.90;2.20;;;7.70;99.90;;;8.20;100.00;98386.22;5047224;28;20575;-79
2023/12/27 09:00:10;;;;;;;8.10;2.80;;;7.70;99.90;;;8.22;100.00;98373.84;5046826;28;21533;-78
2023/12/27 09:02:39;;;;;;;5.03;2.77;;;7.70;99.90;;;8.25;100.00;98378.72;5045799;28;20455;-78
2023/12/27 09:05:09;;;;;;;6.23;2.53;;;7.60;99.90;;;8.27;100.00;98387.19;5046756;28;20480;-78
2023/12/27 09:07:38;;;;;;;3.83;2.30;;;7.60;99.90;;;8.27;100.00;98381.16;5046105;28;20472;-78
2023/12/27 09:10:10;;;;;;;9.23;2.23;;;7.60;99.90;;;8.28;100.00;98372.38;5049019;28;20464;-78
2023/12/27 09:12:39;;;;;;;3.63;2.00;;;7.70;99.90;;;8.30;100.00;98371.25;5048197;28;20548;-78
2023/12/27 09:15:09;;;;;;;6.50;2.77;;;7.60;99.90;;;8.30;100.00;98383.47;5044320;28;21018;-78
2023/12/27 09:17:37;;;;;;;11.43;4.00;;;7.60;99.90;;;8.32;100.00;98397.97;5049012;28;20469;-77
2023/12/27 09:20:08;;;;;;;5.43;2.70;;;7.60;99.90;;;8.32;100.00;98390.16;5042807;28;21611;-78
2023/12/27 09:22:37;;;;;;;2.27;1.87;;;7.60;99.90;;;8.32;100.00;98384.94;5045407;28;20840;-78
2023/12/27 09:25:06;;;;;;;4.27;2.10;;;7.60;99.90;;;8.32;100.00;98384.94;5046265;28;20472;-77
2023/12/27 09:27:36;;;;;;;6.03;2.57;;;7.70;99.90;;;8.32;100.00;98392.75;5049791;28;20461;-78
2023/12/27 09:30:06;;;;;;;4.20;2.30;;;7.70;99.90;;;8.35;100.00;98389.00;5045405;28;21026;-78
2023/12/27 09:32:35;;;;;;;5.90;2.20;;;7.70;99.90;;;8.36;100.00;98388.84;5046491;28;20501;-77
2023/12/27 09:35:04;;;;;;;9.37;2.73;;;7.70;99.90;;;8.34;100.00;98393.41;5045794;28;22513;-79
2023/12/27 09:37:32;;;;;;;4.00;2.07;;;7.80;99.90;;;8.34;100.00;98390.78;5044549;28;20465;-79
2023/12/27 09:40:01;;;;;;;6.50;2.33;;;7.90;99.90;;;8.35;100.00;98395.03;5049224;28;20463;-78
2023/12/27 09:42:33;;;;;;;4.90;2.17;;;7.90;99.90;;;8.33;100.00;98383.16;5046308;28;20461;-79
2023/12/27 09:45:08;;;;;;;6.57;2.70;;;7.90;99.90;;;8.36;100.00;98380.22;5042764;28;20458;-79
2023/12/27 09:47:40;;;;;;;6.50;1.90;;;7.80;99.90;;;8.36;100.00;98369.78;5043997;28;20539;-79
2023/12/27 09:50:09;;;;;;;9.63;2.37;;;7.80;99.90;;;8.38;100.00;98379.06;5045893;28;21053;-80
2023/12/27 09:52:41;;;;;;;8.60;2.27;;;7.80;99.90;;;8.36;100.00;98385.44;5045482;28;21198;-80
2023/12/27 09:55:10;;;;;;;4.73;1.93;;;7.90;99.90;;;8.41;100.00;98373.53;5047095;28;20490;-79
2023/12/27 09:57:41;;;;;;;4.67;1.77;;;7.80;99.90;;;8.43;100.00;98368.16;5046114;28;20556;-80
2023/12/27 10:00:13;;;;;;;2.93;1.87;;;7.90;99.90;;;8.44;100.00;98375.78;5044673;28;20495;-80
2023/12/27 10:02:45;;;;;;;4.80;2.10;;;7.80;99.90;;;8.47;100.00;98365.03;5049328;28;20828;-79
2023/12/27 10:05:22;;;;;;;2.23;1.47;;;7.80;99.90;;;8.50;100.00;98369.91;5047905;28;20487;-79
2023/12/27 10:07:51;;;;;;;14.73;2.13;;;7.90;99.90;;;8.45;100.00;98367.00;5047416;28;20468;-80
2023/12/27 10:10:20;;;;;;;6.67;2.07;;;8.10;99.90;;;8.46;100.00;98360.00;5048266;28;21158;-79
2023/12/27 10:12:56;;;;;;;2.63;1.70;;;8.10;99.90;;;8.49;100.00;98354.47;5046878;28;20461;-80
2023/12/27 10:15:26;;;;;;;12.20;2.50;;;7.90;99.90;;;8.51;100.00;98342.88;5045065;28;20469;-80
2023/12/27 10:17:55;;;;;;;6.43;2.27;;;8.00;99.90;;;8.50;100.00;98336.03;5047227;28;21025;-80
2023/12/27 10:20:46;;;;;;;7.37;2.10;;;8.10;99.90;;;8.53;100.00;98330.53;5044505;28;20477;-80
2023/12/27 10:23:14;;;;;;;9.93;2.73;;;8.00;99.90;;;8.54;100.00;98331.31;5046657;28;20728;-79
2023/12/27 10:25:44;;;;;;;4.70;2.00;;;8.10;99.90;;;8.51;100.00;98327.25;5046453;28;20464;-80
2023/12/27 10:28:12;;;;;;;3.93;1.83;;;8.10;99.90;;;8.49;100.00;98313.59;5044256;28;20477;-79
2023/12/27 10:30:42;;;;;;;4.10;2.00;;;8.00;99.90;;;8.51;100.00;98305.56;5044758;28;20465;-77